Flight Track Log - Related Links

Times and Time Zones

All times are in EDT time to prevent confusion due to time zone crossing. See the SWA2966 flight status page for this flight to view local times or setup timezone preferences in your user account.

Time Position Orientation Groundspeed Altitude Reporting Facility
EDT Latitude Longitude Course Direction KTS MPH feet Rate Location/Type
Sat 04:55:09 PM 47.4306 -122.3097 181° South 162 186 1,400  Level Seattle Center
Sat 04:56:17 PM 47.3667 -122.3106 181° South 205 236 4,300 2,419 Climbing Seattle Center
Sat 04:57:18 PM 47.2983 -122.3086 179° South 251 289 6,600 2,508 Climbing Seattle Center
Sat 04:58:19 PM 47.2242 -122.2750 163° South 280 322 9,400 2,705 Climbing Seattle Center
Sat 04:59:20 PM 47.1419 -122.2328 161° South 317 365 12,100 2,803 Climbing Seattle Center
Sat 05:00:21 PM 47.0467 -122.1878 162° South 364 419 15,100 2,951 Climbing Seattle Center
Sat 05:01:22 PM 46.9500 -122.1431 162° South 377 434 18,100 2,951 Climbing Seattle Center
Sat 05:02:23 PM 46.8464 -122.0992 164° South 390 449 21,100 2,777 Climbing Seattle Center
Sat 05:03:23 PM 46.7394 -122.0475 162° South 406 467 23,700 2,529 Climbing Seattle Center
Sat 05:04:24 PM 46.6283 -121.9961 162° South 422 486 26,200 2,459 Climbing Seattle Center
Sat 05:05:25 PM 46.4906 -121.9403 164° South 432 497 28,700 2,410 Climbing Seattle Center
Sat 05:06:26 PM 46.3739 -121.8953 165° South 439 505 31,100 2,361 Climbing Seattle Center
Sat 05:07:27 PM 46.2597 -121.8519 165° South 430 495 33,500 1,918 Climbing Seattle Center
Sat 05:08:28 PM 46.1511 -121.8103 165° South 421 484 35,000 738 Climbing Seattle Center
Sat 05:09:29 PM 46.0392 -121.7675 165° South 419 482 35,000  Level Seattle Center
Sat 05:10:30 PM 45.9286 -121.7253 165° South 415 478 35,000  Level Seattle Center
Sat 05:11:31 PM 45.8186 -121.6836 165° South 412 474 35,000  Level Seattle Center
Sat 05:12:32 PM 45.7075 -121.6417 165° South 412 474 35,000  Level Seattle Center
Sat 05:13:33 PM 45.5972 -121.6017 166° South 412 474 35,000  Level Seattle Center
Sat 05:14:34 PM 45.4681 -121.5531 165° South 404 465 35,000  Level Seattle Center
Sat 05:15:35 PM 45.3606 -121.5133 165° South 402 463 35,000  Level Seattle Center
Sat 05:16:36 PM 45.2533 -121.4739 165° South 400 460 35,000  Level Seattle Center
Sat 05:17:37 PM 45.1453 -121.4336 165° South 403 464 35,000  Level Seattle Center
Sat 05:18:38 PM 45.0378 -121.3950 166° South 402 463 35,000  Level Seattle Center
Sat 05:19:39 PM 44.9297 -121.3553 165° South 403 464 35,000  Level Seattle Center
Sat 05:20:40 PM 44.8206 -121.3153 165° South 406 467 35,000  Level Seattle Center
Sat 05:21:41 PM 44.7108 -121.2767 166° South 407 468 35,000  Level Seattle Center
Sat 05:22:42 PM 44.5919 -121.2342 166° South 410 472 35,000  Level Seattle Center
Sat 05:23:43 PM 44.4811 -121.1936 165° South 411 473 35,000  Level Seattle Center
Sat 05:24:44 PM 44.3586 -121.1494 166° South 412 474 35,000  Level Seattle Center
Sat 05:25:45 PM 44.2456 -121.1086 165° South 418 481 35,000  Level Seattle Center
Sat 05:26:46 PM 44.1350 -121.0694 166° South 416 479 35,000  Level Seattle Center
Sat 05:27:47 PM 44.0244 -121.0303 166° South 413 475 35,000  Level Seattle Center
Sat 05:28:48 PM 43.9125 -120.9897 165° South 416 479 35,000  Level Seattle Center
Sat 05:29:49 PM 43.8025 -120.9525 166° South 410 472 35,000  Level Seattle Center
Sat 05:30:50 PM 43.6908 -120.9139 166° South 414 476 35,000  Level Seattle Center
Sat 05:31:51 PM 43.5789 -120.8753 166° South 415 478 35,000  Level Seattle Center
Sat 05:32:52 PM 43.4553 -120.8333 166° South 414 476 35,000  Level Seattle Center
Sat 05:33:54 PM 43.3428 -120.7947 166° South 417 480 35,000  Level Seattle Center
Sat 05:34:55 PM 43.2275 -120.7558 166° South 425 489 35,000  Level Seattle Center
Sat 05:35:56 PM 43.1136 -120.7175 166° South 422 486 35,000  Level Seattle Center
Sat 05:36:57 PM 43.0000 -120.6789 166° South 421 484 35,000  Level Seattle Center
Sat 05:37:58 PM 42.8853 -120.6400 166° South 423 487 35,000  Level Seattle Center
Sat 05:38:59 PM 42.7719 -120.6028 166° South 421 484 35,000  Level Seattle Center
Sat 05:40:00 PM 42.6594 -120.5647 166° South 418 481 35,000  Level Seattle Center
Sat 05:41:01 PM 42.5456 -120.5267 166° South 420 483 35,000  Level Seattle Center
Sat 05:42:02 PM 42.4092 -120.4833 167° South 419 482 35,000  Level Seattle Center
Sat 05:43:03 PM 42.2950 -120.4492 168° South 421 484 35,000  Level Seattle Center
Sat 05:44:04 PM 42.1828 -120.4164 168° South 414 476 35,000  Level Seattle Center
Sat 05:45:05 PM 42.0692 -120.3819 167° South 416 479 35,000  Level Seattle Center
Sat 05:46:06 PM 41.9575 -120.3483 167° South 412 474 35,000  Level Seattle Center
Sat 05:47:06 PM 41.8447 -120.3144 167° South 413 475 35,000  Level Seattle Center
Sat 05:48:07 PM 41.7328 -120.2808 167° South 412 474 35,000  Level Seattle Center
Sat 05:49:08 PM 41.6186 -120.2503 169° South 418 481 35,000  Level Seattle Center
Sat 05:50:09 PM 41.5053 -120.2172 168° South 414 476 35,000  Level Seattle Center
Sat 05:51:10 PM 41.3942 -120.1833 167° South 411 473 35,000  Level Seattle Center
Sat 05:52:11 PM 41.2839 -120.1519 168° South 409 471 35,000 -313 Level Seattle Center
Sat 05:52:46 PM 41.2172 -120.1239 162° South 414 476 34,500 -1,250 Descending Oakland Center
Sat 05:53:47 PM 41.1039 -120.0958 169° South 416 479 33,000 -732 Descending Oakland Center
Sat 05:54:49 PM 40.9869 -120.0667 169° South 424 488 33,000 -585 Level Oakland Center
Sat 05:55:50 PM 40.8739 -120.0333 167° South 420 483 31,800 -1,918 Descending Oakland Center
Sat 05:56:51 PM 40.7428 -119.9892 166° South 410 472 29,100 -2,780 Descending Oakland Center
Sat 05:57:53 PM 40.6281 -119.9572 168° South 417 480 26,100 -2,927 Descending Oakland Center
Sat 05:58:54 PM 40.5147 -119.9303 170° South 403 464 23,100 -2,341 Descending Oakland Center
Sat 05:59:56 PM 40.4028 -119.8986 168° South 409 471 21,300 -1,707 Descending Oakland Center
Sat 06:00:57 PM 40.2978 -119.8686 168° South 396 456 19,600 -1,820 Descending Oakland Center
Sat 06:01:58 PM 40.1961 -119.8414 168° South 380 437 17,600 -1,756 Descending Oakland Center
Sat 06:03:00 PM 40.0972 -119.8133 168° South 370 426 16,000 -780 Descending Oakland Center
Sat 06:04:01 PM 40.0025 -119.7858 167° South 356 410 16,000  Level Oakland Center
Sat 06:05:02 PM 39.9056 -119.7583 168° South 355 409 16,000 -732 Level Oakland Center
Sat 06:06:04 PM 39.7878 -119.7278 169° South 360 414 14,500 -1,805 Descending Oakland Center
Sat 06:07:05 PM 39.6894 -119.6994 167° South 362 417 12,300 -2,164 Descending Oakland Center
Sat 06:08:06 PM 39.5950 -119.6731 168° South 354 407 10,100 -1,122 Descending Oakland Center
Sat 06:09:08 PM 39.5056 -119.6528 170° South 342 394 10,000 -49 Descending Oakland Center
Sat 06:10:09 PM 39.4314 -119.6472 177° South 299 344 10,000 -295 Level Oakland Center
Sat 06:11:10 PM 39.3808 -119.6947 216° Southwest 251 289 9,400 -927 Descending Oakland Center
Sat 06:12:12 PM 39.3542 -119.7536 240° Southwest 217 250 8,100 -1,615 Descending Oakland Center
Sat 06:13:20 PM 39.4167 -119.7667 351° North 154 177 5,900 -1,500 Descending Northern Cal TRACON
Sat 06:14:20 PM 39.4667 -119.7667 360° North 159 183 4,900 -1,000 Descending Northern Cal TRACON

Login

Don't have an account? Register now (free) for customized features, flight alerts, and more!